createdAt,value
2023-05-14T00:00:01.427Z,14.33
2023-05-14T00:02:29.133Z,13.98
2023-05-14T00:04:58.377Z,13.92
2023-05-14T00:07:30.719Z,13.53
2023-05-14T00:09:58.606Z,13.69
2023-05-14T00:12:26.679Z,13.73
2023-05-14T00:14:54.732Z,14.58
2023-05-14T00:17:22.442Z,14.93
2023-05-14T00:19:50.189Z,14.78
2023-05-14T00:22:19.190Z,15.29
2023-05-14T00:24:46.842Z,15.30
2023-05-14T00:27:14.757Z,15.23
2023-05-14T00:29:42.382Z,15.27
2023-05-14T00:32:10.059Z,15.15
2023-05-14T00:34:37.642Z,15.26
2023-05-14T00:37:05.625Z,14.77
2023-05-14T00:39:35.115Z,14.92
2023-05-14T00:42:02.788Z,14.96
2023-05-14T00:44:30.438Z,14.81
2023-05-14T00:46:58.215Z,13.97
2023-05-14T00:49:26.649Z,14.63
2023-05-14T00:51:54.733Z,14.98
2023-05-14T00:54:22.660Z,15.05
2023-05-14T00:56:52.074Z,14.01
2023-05-14T00:59:19.764Z,14.70
2023-05-14T01:01:47.642Z,14.30
2023-05-14T01:04:15.836Z,14.40
2023-05-14T01:06:57.876Z,14.06
2023-05-14T01:09:30.697Z,13.08
2023-05-14T01:12:06.536Z,12.50
2023-05-14T01:14:42.059Z,12.31
2023-05-14T01:17:12.727Z,12.53
2023-05-14T01:19:42.093Z,13.32
2023-05-14T01:22:11.911Z,14.38
2023-05-14T01:24:39.700Z,14.07
2023-05-14T01:27:14.414Z,14.47
2023-05-14T01:29:46.468Z,14.25
2023-05-14T01:32:14.723Z,13.15
2023-05-14T01:34:42.893Z,13.65
2023-05-14T01:37:13.433Z,13.26
2023-05-14T01:39:43.458Z,13.97
2023-05-14T01:42:11.978Z,13.79
2023-05-14T01:44:39.578Z,14.16
2023-05-14T01:47:07.269Z,14.21
2023-05-14T01:49:34.915Z,12.83
2023-05-14T01:52:02.520Z,13.71
2023-05-14T01:54:31.512Z,14.36
2023-05-14T01:56:59.099Z,14.64
2023-05-14T01:59:26.748Z,14.20
2023-05-14T02:01:54.452Z,14.38
2023-05-14T02:04:22.125Z,14.72
2023-05-14T02:06:50.007Z,14.90
2023-05-14T02:09:17.595Z,14.92
2023-05-14T02:11:46.560Z,14.98
2023-05-14T02:14:15.241Z,14.87
2023-05-14T02:16:42.991Z,14.71
2023-05-14T02:19:11.116Z,14.35
2023-05-14T02:21:38.773Z,14.94
2023-05-14T02:24:06.764Z,15.04
2023-05-14T02:26:34.363Z,14.73
2023-05-14T02:29:03.356Z,15.17
2023-05-14T02:31:31.108Z,15.12
2023-05-14T02:33:58.765Z,15.25
2023-05-14T02:36:26.374Z,14.91
2023-05-14T02:38:54.065Z,14.93
2023-05-14T02:41:21.686Z,14.69
2023-05-14T02:43:49.344Z,14.83
2023-05-14T02:46:18.386Z,14.57
2023-05-14T02:48:46.116Z,14.09
2023-05-14T02:51:13.768Z,14.39
2023-05-14T02:53:41.408Z,14.51
2023-05-14T02:56:09.018Z,14.60
2023-05-14T02:58:36.646Z,14.55
2023-05-14T03:01:04.340Z,14.55
2023-05-14T03:03:33.966Z,14.49
2023-05-14T03:06:02.134Z,14.46
2023-05-14T03:08:29.804Z,14.20
2023-05-14T03:10:57.454Z,14.04
2023-05-14T03:13:25.105Z,13.82
2023-05-14T03:15:54.873Z,13.67
2023-05-14T03:18:22.753Z,13.67
2023-05-14T03:20:51.756Z,13.42
2023-05-14T03:23:19.382Z,13.63
2023-05-14T03:25:47.062Z,14.01
2023-05-14T03:28:14.699Z,13.83
2023-05-14T03:30:42.369Z,13.17
2023-05-14T03:33:10.071Z,12.83
2023-05-14T03:35:37.704Z,13.35
2023-05-14T03:38:07.454Z,13.68
2023-05-14T03:40:35.094Z,13.28
2023-05-14T03:43:02.755Z,12.78
2023-05-14T03:45:30.605Z,13.41
2023-05-14T03:47:58.336Z,13.63
2023-05-14T03:50:26.668Z,12.37
2023-05-14T03:52:54.973Z,11.45
2023-05-14T03:55:24.260Z,12.22
2023-05-14T03:57:51.872Z,12.19
2023-05-14T04:00:19.947Z,12.70
2023-05-14T04:02:47.627Z,13.21
2023-05-14T04:05:15.389Z,12.58
2023-05-14T04:07:43.052Z,13.13
2023-05-14T04:10:11.031Z,13.26
2023-05-14T04:12:40.062Z,12.69
2023-05-14T04:15:08.909Z,12.22
2023-05-14T04:17:36.665Z,13.19
2023-05-14T04:20:04.840Z,12.91
2023-05-14T04:22:33.025Z,13.48
2023-05-14T04:25:00.616Z,12.14
2023-05-14T04:27:29.402Z,13.20
2023-05-14T04:29:58.440Z,13.60
2023-05-14T04:32:26.130Z,13.96
2023-05-14T04:34:53.864Z,13.45
2023-05-14T04:37:21.578Z,13.90
2023-05-14T04:39:49.242Z,14.02
2023-05-14T04:42:16.871Z,13.75
2023-05-14T04:44:44.511Z,14.30
2023-05-14T04:47:13.488Z,14.78
2023-05-14T04:49:41.280Z,15.00
2023-05-14T04:52:08.923Z,15.13
2023-05-14T04:54:36.693Z,15.36
2023-05-14T04:57:04.452Z,15.96
2023-05-14T04:59:32.774Z,18.40
2023-05-14T05:02:00.427Z,20.71
2023-05-14T05:04:29.412Z,22.52
2023-05-14T05:06:57.077Z,23.18
2023-05-14T05:09:24.709Z,24.03
2023-05-14T05:11:52.327Z,24.75
2023-05-14T05:14:20.034Z,25.03
2023-05-14T05:16:47.728Z,25.18
2023-05-14T05:19:15.554Z,26.07
2023-05-14T05:21:44.836Z,25.96
2023-05-14T05:24:13.308Z,26.61
2023-05-14T05:26:40.923Z,24.51
2023-05-14T05:29:08.580Z,24.16
2023-05-14T05:31:36.647Z,25.79
2023-05-14T05:34:04.775Z,26.91
2023-05-14T05:36:32.627Z,26.25
2023-05-14T05:39:01.584Z,25.06
2023-05-14T05:41:30.058Z,24.14
2023-05-14T05:43:57.685Z,24.54
2023-05-14T05:46:25.429Z,24.39
2023-05-14T05:48:53.263Z,24.87
2023-05-14T05:51:20.926Z,26.67
2023-05-14T05:53:48.602Z,24.30
2023-05-14T05:56:17.612Z,24.83
2023-05-14T05:58:45.313Z,25.42
2023-05-14T06:01:12.935Z,26.41
2023-05-14T06:03:40.634Z,27.44
2023-05-14T06:06:08.663Z,26.06
2023-05-14T06:08:36.372Z,26.09
2023-05-14T06:11:03.980Z,27.29
2023-05-14T06:13:33.359Z,27.14
2023-05-14T06:16:01.043Z,29.38
2023-05-14T06:18:28.918Z,27.99
2023-05-14T06:20:57.044Z,26.81
2023-05-14T06:23:24.609Z,29.47
2023-05-14T06:25:52.206Z,29.27
2023-05-14T06:28:19.856Z,28.56
2023-05-14T06:30:50.729Z,28.91
2023-05-14T06:33:20.476Z,26.20
2023-05-14T06:35:48.377Z,24.71
2023-05-14T06:38:16.011Z,25.30
2023-05-14T06:40:43.610Z,24.14
2023-05-14T06:43:11.321Z,23.99
2023-05-14T06:45:38.953Z,24.27
2023-05-14T06:48:10.116Z,26.33
2023-05-14T06:50:37.912Z,25.18
2023-05-14T06:53:05.529Z,28.06
2023-05-14T06:55:33.209Z,25.99
2023-05-14T06:58:00.838Z,25.22
2023-05-14T07:00:28.999Z,24.62
2023-05-14T07:02:56.622Z,25.15
2023-05-14T07:05:26.390Z,25.26
2023-05-14T07:07:54.010Z,27.16
2023-05-14T07:10:21.893Z,25.36
2023-05-14T07:12:49.975Z,25.76
2023-05-14T07:15:17.690Z,24.79
2023-05-14T07:17:45.625Z,25.17
2023-05-14T07:20:14.164Z,25.82
2023-05-14T07:22:43.106Z,25.95
2023-05-14T07:25:11.132Z,28.29
2023-05-14T07:27:38.804Z,26.26
2023-05-14T07:30:07.599Z,26.69
2023-05-14T07:32:35.372Z,29.02
2023-05-14T07:35:03.108Z,29.40
2023-05-14T07:37:30.756Z,28.71
2023-05-14T07:39:59.703Z,27.48
2023-05-14T07:42:36.023Z,26.73
2023-05-14T07:45:04.922Z,27.55
2023-05-14T07:47:32.941Z,28.17
2023-05-14T07:50:00.888Z,28.52
2023-05-14T07:52:28.716Z,28.45
2023-05-14T07:54:56.655Z,27.41
2023-05-14T07:57:26.263Z,25.34
2023-05-14T07:59:53.973Z,26.52
2023-05-14T08:02:21.637Z,27.85
2023-05-14T08:04:49.293Z,23.95
2023-05-14T08:07:17.251Z,28.46
2023-05-14T08:09:44.848Z,26.79
2023-05-14T08:12:12.807Z,28.27
2023-05-14T08:14:41.791Z,26.35
2023-05-14T08:17:09.572Z,27.05
2023-05-14T08:19:37.324Z,27.30
2023-05-14T08:22:05.575Z,29.60
2023-05-14T08:24:33.199Z,27.57
2023-05-14T08:27:00.861Z,27.22
2023-05-14T08:29:28.728Z,26.65
2023-05-14T08:31:58.073Z,28.13
2023-05-14T08:34:26.073Z,27.01
2023-05-14T08:36:53.725Z,25.94
2023-05-14T08:39:21.310Z,27.00
2023-05-14T08:41:49.221Z,28.23
2023-05-14T08:44:20.762Z,28.14
2023-05-14T08:46:51.130Z,27.94
2023-05-14T08:49:29.180Z,28.33
2023-05-14T08:51:57.478Z,27.40
2023-05-14T08:54:26.247Z,26.74
2023-05-14T08:56:54.217Z,26.76
2023-05-14T08:59:21.866Z,26.51
2023-05-14T09:01:54.064Z,25.96
2023-05-14T09:04:24.407Z,26.06
2023-05-14T09:06:54.479Z,25.73
2023-05-14T09:09:23.141Z,24.59
2023-05-14T09:11:52.035Z,25.14
2023-05-14T09:14:20.756Z,24.38
2023-05-14T09:16:50.000Z,24.49
2023-05-14T09:19:19.222Z,25.55
2023-05-14T09:21:50.289Z,23.80
2023-05-14T09:24:22.235Z,24.22
2023-05-14T09:26:51.959Z,23.47
2023-05-14T09:29:19.874Z,23.92
2023-05-14T09:31:48.742Z,23.40
2023-05-14T09:34:25.141Z,24.00
2023-05-14T09:36:57.734Z,23.67
2023-05-14T09:39:26.421Z,23.86
2023-05-14T09:41:54.830Z,24.07
2023-05-14T09:44:22.944Z,24.57
2023-05-14T09:46:51.642Z,24.16
2023-05-14T09:49:19.560Z,24.74
2023-05-14T09:51:47.408Z,24.08
2023-05-14T09:54:16.581Z,24.54
2023-05-14T09:56:45.064Z,24.44
2023-05-14T09:59:12.958Z,25.26
2023-05-14T10:01:43.859Z,25.28
2023-05-14T10:04:13.563Z,25.72
2023-05-14T10:06:42.801Z,23.95
2023-05-14T10:09:13.711Z,23.37
2023-05-14T10:11:46.244Z,24.06
2023-05-14T10:14:19.613Z,24.06
2023-05-14T10:16:50.111Z,24.91
2023-05-14T10:19:19.344Z,24.69
2023-05-14T10:21:50.722Z,24.60
2023-05-14T10:24:20.024Z,25.20
2023-05-14T10:26:49.833Z,26.14
2023-05-14T10:29:17.435Z,26.04
2023-05-14T10:31:50.142Z,24.97
2023-05-14T10:34:38.641Z,23.41
2023-05-14T10:37:09.028Z,25.21
2023-05-14T10:39:44.981Z,24.95
2023-05-14T10:42:16.312Z,24.57
2023-05-14T10:44:52.597Z,24.92
2023-05-14T10:47:20.999Z,24.96
2023-05-14T10:49:52.952Z,24.44
2023-05-14T10:52:20.697Z,24.56
2023-05-14T10:54:52.872Z,23.35
2023-05-14T10:57:23.573Z,23.38
2023-05-14T10:59:54.865Z,25.62
2023-05-14T11:02:24.897Z,26.37
2023-05-14T11:05:03.342Z,24.69
2023-05-14T11:07:33.296Z,26.37
2023-05-14T11:10:03.453Z,26.24
2023-05-14T11:12:32.763Z,25.19
2023-05-14T11:15:02.130Z,23.91
2023-05-14T11:17:31.123Z,23.67
2023-05-14T11:19:59.769Z,24.55
2023-05-14T11:22:28.640Z,24.54
2023-05-14T11:24:56.264Z,23.59
2023-05-14T11:27:24.568Z,23.94
2023-05-14T11:29:55.797Z,24.41
2023-05-14T11:32:23.647Z,23.16
2023-05-14T11:34:51.947Z,23.04
2023-05-14T11:37:20.288Z,23.40
2023-05-14T11:39:49.500Z,24.95
2023-05-14T11:42:19.514Z,25.42
2023-05-14T11:44:48.971Z,25.79
2023-05-14T11:47:18.836Z,25.67
2023-05-14T11:49:46.627Z,24.41
2023-05-14T11:52:15.751Z,25.07
2023-05-14T11:54:44.872Z,24.89
2023-05-14T11:57:14.622Z,25.05
2023-05-14T11:59:42.319Z,25.49
2023-05-14T12:02:11.723Z,25.20
2023-05-14T12:04:41.511Z,24.12
2023-05-14T12:07:11.022Z,23.63
2023-05-14T12:09:41.564Z,24.75
2023-05-14T12:12:12.012Z,24.23
2023-05-14T12:14:43.353Z,24.06
2023-05-14T12:17:12.960Z,24.82
2023-05-14T12:19:43.271Z,26.15
2023-05-14T12:22:11.991Z,24.34
2023-05-14T12:24:40.178Z,24.58
2023-05-14T12:27:09.207Z,24.86
2023-05-14T12:29:39.099Z,26.17
2023-05-14T12:32:10.166Z,26.16
2023-05-14T12:34:38.865Z,27.20
2023-05-14T12:37:08.032Z,26.64
2023-05-14T12:39:35.959Z,27.79
2023-05-14T12:42:03.597Z,27.27
2023-05-14T12:44:31.233Z,27.43
2023-05-14T12:46:59.064Z,25.78
2023-05-14T12:49:26.662Z,25.70
2023-05-14T12:52:07.903Z,25.79
2023-05-14T12:54:43.726Z,25.73
2023-05-14T12:57:11.550Z,25.39
2023-05-14T12:59:39.185Z,25.69
2023-05-14T13:02:07.101Z,26.38
2023-05-14T13:04:34.884Z,25.43
2023-05-14T13:07:02.596Z,24.61
2023-05-14T13:09:30.182Z,24.75
2023-05-14T13:11:59.230Z,24.38
2023-05-14T13:14:26.905Z,25.65
2023-05-14T13:16:54.730Z,24.56
2023-05-14T13:19:22.331Z,24.77
2023-05-14T13:21:49.912Z,25.78
2023-05-14T13:24:17.582Z,25.59
2023-05-14T13:26:45.499Z,26.50
2023-05-14T13:29:14.470Z,24.97
2023-05-14T13:31:42.110Z,24.72
2023-05-14T13:34:10.236Z,24.59
2023-05-14T13:36:39.644Z,25.22
2023-05-14T13:39:07.445Z,24.86
2023-05-14T13:41:35.713Z,24.72
2023-05-14T13:44:03.350Z,26.05
2023-05-14T13:46:32.416Z,25.63
2023-05-14T13:49:00.125Z,24.80
2023-05-14T13:51:27.746Z,25.03
2023-05-14T13:56:27.961Z,25.80
2023-05-14T13:58:55.811Z,26.55
2023-05-14T14:01:23.505Z,25.61
2023-05-14T14:03:52.632Z,26.08
2023-05-14T14:06:20.750Z,24.85
2023-05-14T14:08:48.448Z,24.27
2023-05-14T14:11:16.927Z,24.40
2023-05-14T14:13:46.637Z,25.19
2023-05-14T14:16:14.520Z,23.98
2023-05-14T14:18:43.094Z,23.87
2023-05-14T14:21:12.463Z,25.39
2023-05-14T14:23:40.079Z,24.92
2023-05-14T14:26:07.766Z,25.38
2023-05-14T14:28:35.433Z,25.58
2023-05-14T14:31:03.490Z,25.45
2023-05-14T14:33:31.155Z,25.88
2023-05-14T14:35:58.952Z,24.53
2023-05-14T14:38:27.930Z,25.07
2023-05-14T14:40:55.642Z,24.44
2023-05-14T14:43:23.255Z,24.74
2023-05-14T14:45:51.366Z,24.29
2023-05-14T14:48:31.281Z,25.12
2023-05-14T14:50:59.895Z,25.20
2023-05-14T14:53:28.847Z,25.06
2023-05-14T14:55:56.948Z,24.88
2023-05-14T14:58:26.014Z,24.90
2023-05-14T15:00:55.153Z,24.78
2023-05-14T15:03:23.490Z,25.06
2023-05-14T15:05:52.030Z,24.35
2023-05-14T15:08:20.765Z,24.67
2023-05-14T15:10:49.762Z,23.99
2023-05-14T15:13:17.578Z,24.19
2023-05-14T15:15:45.406Z,25.17
2023-05-14T15:18:13.110Z,25.09
2023-05-14T15:20:40.896Z,25.39
2023-05-14T15:23:08.940Z,24.65
2023-05-14T15:25:37.126Z,24.89
2023-05-14T15:28:07.402Z,25.27
2023-05-14T15:30:35.174Z,25.86
2023-05-14T15:33:02.931Z,25.28
2023-05-14T15:35:30.720Z,25.25
2023-05-14T15:37:58.323Z,24.62
2023-05-14T15:40:26.144Z,24.88
2023-05-14T15:42:54.013Z,25.22
2023-05-14T15:45:23.344Z,25.01
2023-05-14T15:47:51.203Z,24.92
2023-05-14T15:50:19.034Z,25.44
2023-05-14T15:52:46.830Z,24.78
2023-05-14T15:55:14.470Z,25.16
2023-05-14T15:57:42.102Z,24.75
2023-05-14T16:00:11.399Z,25.67
2023-05-14T16:02:40.788Z,25.22
2023-05-14T16:05:09.485Z,23.85
2023-05-14T16:07:37.762Z,24.88
2023-05-14T16:10:06.095Z,24.75
2023-05-14T16:12:33.744Z,24.13
2023-05-14T16:15:01.365Z,24.79
2023-05-14T16:17:30.391Z,24.47
2023-05-14T16:20:00.793Z,23.88
2023-05-14T16:22:29.202Z,25.01
2023-05-14T16:24:56.868Z,25.48
2023-05-14T16:27:24.553Z,25.46
2023-05-14T16:29:52.173Z,25.44
2023-05-14T16:32:20.277Z,24.51
2023-05-14T16:34:49.891Z,25.05
2023-05-14T16:37:20.622Z,24.90
2023-05-14T16:39:48.526Z,24.89
2023-05-14T16:42:16.197Z,24.84
2023-05-14T16:44:43.975Z,24.88
2023-05-14T16:47:12.031Z,24.63
2023-05-14T16:49:39.700Z,24.72
2023-05-14T16:52:08.438Z,24.80
2023-05-14T16:54:37.578Z,24.86
2023-05-14T16:57:05.997Z,24.95
2023-05-14T16:59:33.638Z,24.78
2023-05-14T17:02:01.348Z,24.68
2023-05-14T17:04:29.212Z,24.73
2023-05-14T17:06:58.116Z,25.04
2023-05-14T17:09:25.850Z,25.96
2023-05-14T17:11:54.817Z,24.93
2023-05-14T17:14:22.600Z,24.65
2023-05-14T17:16:50.238Z,24.12
2023-05-14T17:19:17.870Z,24.72
2023-05-14T17:21:45.511Z,24.08
2023-05-14T17:24:13.182Z,24.80
2023-05-14T17:26:40.967Z,24.49
2023-05-14T17:29:09.904Z,24.24
2023-05-14T17:31:37.619Z,24.36
2023-05-14T17:34:05.528Z,24.12
2023-05-14T17:36:33.270Z,24.35
2023-05-14T17:39:00.952Z,24.12
2023-05-14T17:41:28.611Z,24.32
2023-05-14T17:43:56.192Z,23.19
2023-05-14T17:46:25.676Z,23.72
2023-05-14T17:48:53.345Z,23.11
2023-05-14T17:51:21.028Z,23.13
2023-05-14T17:53:48.617Z,23.04
2023-05-14T17:56:18.371Z,22.91
2023-05-14T17:58:46.102Z,22.59
2023-05-14T18:01:13.787Z,23.15
2023-05-14T18:03:42.951Z,23.53
2023-05-14T18:06:10.683Z,24.49
2023-05-14T18:08:38.326Z,23.42
2023-05-14T18:11:05.983Z,23.37
2023-05-14T18:13:33.614Z,23.41
2023-05-14T18:16:01.297Z,24.20
2023-05-14T18:18:29.026Z,24.24
2023-05-14T18:20:58.464Z,23.35
2023-05-14T18:23:26.111Z,23.15
2023-05-14T18:25:54.007Z,23.96
2023-05-14T18:28:21.933Z,23.40
2023-05-14T18:30:50.114Z,23.24
2023-05-14T18:33:18.065Z,23.77
2023-05-14T18:35:45.733Z,24.06
2023-05-14T18:38:17.705Z,24.36
2023-05-14T18:40:45.365Z,24.51
2023-05-14T18:43:13.451Z,24.45
2023-05-14T18:45:41.169Z,24.09
2023-05-14T18:48:09.048Z,23.86
2023-05-14T18:50:39.222Z,24.58
2023-05-14T18:53:07.522Z,24.33
2023-05-14T18:55:37.111Z,23.64
2023-05-14T18:58:04.815Z,23.97
2023-05-14T19:00:32.654Z,24.56
2023-05-14T19:03:00.367Z,24.64
2023-05-14T19:05:28.084Z,24.16
2023-05-14T19:07:55.798Z,23.44
2023-05-14T19:10:23.481Z,23.38
2023-05-14T19:12:52.483Z,23.22
2023-05-14T19:15:20.209Z,23.73
2023-05-14T19:17:47.835Z,23.80
2023-05-14T19:20:15.500Z,22.38
2023-05-14T19:22:43.166Z,23.40
2023-05-14T19:25:11.571Z,23.59
2023-05-14T19:27:39.548Z,23.13
2023-05-14T19:30:09.888Z,21.89
2023-05-14T19:32:38.060Z,23.00
2023-05-14T19:35:06.946Z,23.07
2023-05-14T19:37:34.639Z,23.15
2023-05-14T19:40:02.351Z,23.54
2023-05-14T19:42:30.608Z,22.95
2023-05-14T19:44:58.348Z,23.35
2023-05-14T19:47:28.462Z,23.44
2023-05-14T19:49:56.270Z,23.21
2023-05-14T19:52:23.889Z,23.00
2023-05-14T19:54:51.555Z,23.14
2023-05-14T19:57:19.223Z,23.09
2023-05-14T19:59:46.939Z,22.74
2023-05-14T20:02:18.140Z,22.89
2023-05-14T20:04:47.470Z,22.72
2023-05-14T20:07:15.600Z,22.26
2023-05-14T20:09:43.308Z,21.56
2023-05-14T20:12:12.826Z,21.60
2023-05-14T20:14:41.045Z,20.98
2023-05-14T20:17:08.758Z,20.67
2023-05-14T20:19:36.534Z,20.47
2023-05-14T20:22:05.976Z,20.74
2023-05-14T20:24:33.598Z,20.38
2023-05-14T20:27:01.625Z,20.43
2023-05-14T20:29:29.296Z,20.52
2023-05-14T20:31:57.140Z,19.51
2023-05-14T20:34:24.805Z,20.00
2023-05-14T20:36:52.915Z,19.95
2023-05-14T20:39:22.127Z,19.94
2023-05-14T20:41:49.736Z,19.98
2023-05-14T20:44:18.458Z,19.84
2023-05-14T20:46:48.369Z,19.91
2023-05-14T20:49:16.117Z,19.70
2023-05-14T20:51:43.727Z,19.61
2023-05-14T20:54:11.340Z,19.56
2023-05-14T20:56:40.357Z,19.47
2023-05-14T20:59:07.962Z,19.56
2023-05-14T21:01:35.730Z,19.21
2023-05-14T21:04:03.658Z,19.20
2023-05-14T21:06:31.433Z,19.26
2023-05-14T21:08:59.083Z,18.90
2023-05-14T21:11:26.717Z,18.56
2023-05-14T21:13:55.713Z,18.86
2023-05-14T21:16:23.771Z,18.85
2023-05-14T21:18:51.467Z,18.30
2023-05-14T21:21:19.141Z,18.29
2023-05-14T21:23:46.796Z,17.90
2023-05-14T21:26:14.460Z,18.17
2023-05-14T21:28:42.092Z,18.15
2023-05-14T21:31:11.127Z,18.19
2023-05-14T21:33:38.790Z,18.09
2023-05-14T21:36:07.357Z,18.29
2023-05-14T21:38:35.171Z,18.30
2023-05-14T21:41:02.871Z,18.22
2023-05-14T21:43:30.513Z,18.24
2023-05-14T21:45:58.206Z,17.51
2023-05-14T21:48:27.225Z,17.24
2023-05-14T21:50:55.843Z,17.26
2023-05-14T21:53:23.580Z,17.28
2023-05-14T21:55:51.339Z,17.32
2023-05-14T21:58:18.953Z,17.44
2023-05-14T22:00:46.629Z,17.53
2023-05-14T22:03:14.420Z,17.46
2023-05-14T22:05:43.536Z,17.58
2023-05-14T22:08:11.743Z,17.38
2023-05-14T22:10:39.371Z,17.09
2023-05-14T22:13:07.014Z,16.98
2023-05-14T22:15:34.971Z,16.95
2023-05-14T22:18:03.572Z,16.92
2023-05-14T22:20:31.278Z,16.59
2023-05-14T22:23:00.279Z,16.60
2023-05-14T22:25:27.996Z,16.24
2023-05-14T22:27:55.664Z,16.16
2023-05-14T22:30:23.493Z,15.93
2023-05-14T22:32:51.169Z,15.89
2023-05-14T22:35:18.966Z,15.81
2023-05-14T22:37:46.624Z,15.77
2023-05-14T22:40:16.086Z,15.64
2023-05-14T22:42:43.758Z,15.76
2023-05-14T22:45:11.721Z,15.80
2023-05-14T22:47:39.659Z,15.62
2023-05-14T22:50:11.473Z,15.74
2023-05-14T22:52:39.463Z,15.85
2023-05-14T22:55:08.074Z,16.11
2023-05-14T22:57:37.181Z,15.49
2023-05-14T23:00:06.978Z,15.33
2023-05-14T23:02:34.754Z,15.96
2023-05-14T23:05:02.439Z,15.93
2023-05-14T23:07:30.079Z,16.20
2023-05-14T23:09:57.721Z,16.11
2023-05-14T23:12:25.377Z,16.02
2023-05-14T23:14:54.355Z,16.17
2023-05-14T23:17:22.188Z,16.09
2023-05-14T23:19:49.975Z,16.02
2023-05-14T23:22:17.723Z,16.04
2023-05-14T23:24:45.402Z,16.09
2023-05-14T23:27:13.057Z,16.11
2023-05-14T23:29:40.731Z,16.26
2023-05-14T23:32:09.999Z,15.74
2023-05-14T23:34:37.745Z,14.35
2023-05-14T23:37:05.794Z,14.56
2023-05-14T23:39:33.492Z,14.98
2023-05-14T23:42:01.110Z,14.96
2023-05-14T23:44:28.779Z,15.21
2023-05-14T23:46:56.459Z,15.19
2023-05-14T23:49:25.561Z,15.22
2023-05-14T23:51:53.208Z,15.12
2023-05-14T23:54:21.144Z,15.39
2023-05-14T23:56:49.014Z,15.60
2023-05-14T23:59:17.058Z,15.79
